sensor_id;sensor_type;location;lat;lon;timestamp;pressure;altitude;pressure_sealevel;temperature;humidity
28701;BME280;15877;52.344;16.790;2023-03-16T00:02:52;101004.57;;;5.48;60.67
28701;BME280;15877;52.344;16.790;2023-03-16T00:05:24;101012.65;;;5.47;60.73
28701;BME280;15877;52.344;16.790;2023-03-16T00:07:57;101017.25;;;5.33;61.11
28701;BME280;15877;52.344;16.790;2023-03-16T00:10:29;101019.36;;;5.24;61.69
28701;BME280;15877;52.344;16.790;2023-03-16T00:13:02;101022.48;;;5.23;61.89
28701;BME280;15877;52.344;16.790;2023-03-16T00:15:35;101022.86;;;5.27;61.92
28701;BME280;15877;52.344;16.790;2023-03-16T00:18:07;101023.39;;;5.25;62.02
28701;BME280;15877;52.344;16.790;2023-03-16T00:20:40;101021.89;;;5.24;62.15
28701;BME280;15877;52.344;16.790;2023-03-16T00:23:12;101025.64;;;5.15;62.66
28701;BME280;15877;52.344;16.790;2023-03-16T00:25:45;101026.53;;;5.24;62.42
28701;BME280;15877;52.344;16.790;2023-03-16T00:28:18;101014.91;;;5.08;62.81
28701;BME280;15877;52.344;16.790;2023-03-16T00:30:52;101028.13;;;5.12;63.05
28701;BME280;15877;52.344;16.790;2023-03-16T00:33:29;101028.30;;;5.04;63.61
28701;BME280;15877;52.344;16.790;2023-03-16T00:36:05;101026.91;;;5.09;63.59
28701;BME280;15877;52.344;16.790;2023-03-16T00:38:40;101021.42;;;5.15;63.45
28701;BME280;15877;52.344;16.790;2023-03-16T00:41:16;101025.52;;;5.20;63.36
28701;BME280;15877;52.344;16.790;2023-03-16T00:43:49;101020.32;;;5.21;63.26
28701;BME280;15877;52.344;16.790;2023-03-16T00:46:24;101024.81;;;5.13;63.46
28701;BME280;15877;52.344;16.790;2023-03-16T00:48:57;101022.55;;;5.15;63.37
28701;BME280;15877;52.344;16.790;2023-03-16T00:51:30;101026.11;;;5.10;63.48
28701;BME280;15877;52.344;16.790;2023-03-16T00:54:06;101020.06;;;5.11;63.48
28701;BME280;15877;52.344;16.790;2023-03-16T00:56:39;101024.75;;;5.11;63.49
28701;BME280;15877;52.344;16.790;2023-03-16T00:59:13;101025.91;;;5.15;63.36
28701;BME280;15877;52.344;16.790;2023-03-16T01:01:46;101014.95;;;4.98;63.64
28701;BME280;15877;52.344;16.790;2023-03-16T01:04:21;101026.68;;;4.99;63.93
28701;BME280;15877;52.344;16.790;2023-03-16T01:06:54;101030.70;;;4.90;64.32
28701;BME280;15877;52.344;16.790;2023-03-16T01:09:27;101030.38;;;4.88;64.52
28701;BME280;15877;52.344;16.790;2023-03-16T01:12:00;101032.96;;;4.90;64.67
28701;BME280;15877;52.344;16.790;2023-03-16T01:14:33;101035.30;;;4.91;64.56
28701;BME280;15877;52.344;16.790;2023-03-16T01:17:08;101044.73;;;5.03;64.20
28701;BME280;15877;52.344;16.790;2023-03-16T01:19:41;101049.42;;;4.97;64.26
28701;BME280;15877;52.344;16.790;2023-03-16T01:22:14;101053.84;;;5.06;64.07
28701;BME280;15877;52.344;16.790;2023-03-16T01:24:47;101048.55;;;4.95;64.15
28701;BME280;15877;52.344;16.790;2023-03-16T01:27:20;101063.53;;;5.15;63.79
28701;BME280;15877;52.344;16.790;2023-03-16T01:29:56;101061.42;;;5.11;63.82
28701;BME280;15877;52.344;16.790;2023-03-16T01:32:29;101060.86;;;4.93;64.38
28701;BME280;15877;52.344;16.790;2023-03-16T01:35:02;101066.48;;;4.93;64.54
28701;BME280;15877;52.344;16.790;2023-03-16T01:37:34;101068.43;;;4.94;64.47
28701;BME280;15877;52.344;16.790;2023-03-16T01:40:29;101073.25;;;4.89;64.71
28701;BME280;15877;52.344;16.790;2023-03-16T01:43:03;101073.41;;;4.82;65.16
28701;BME280;15877;52.344;16.790;2023-03-16T01:46:08;101071.75;;;4.75;65.47
28701;BME280;15877;52.344;16.790;2023-03-16T01:49:03;101071.31;;;4.77;65.66
28701;BME280;15877;52.344;16.790;2023-03-16T01:51:41;101069.69;;;4.69;65.96
28701;BME280;15877;52.344;16.790;2023-03-16T01:54:27;101072.09;;;4.57;66.39
28701;BME280;15877;52.344;16.790;2023-03-16T01:57:05;101069.83;;;4.67;66.17
28701;BME280;15877;52.344;16.790;2023-03-16T01:59:43;101068.30;;;4.59;66.51
28701;BME280;15877;52.344;16.790;2023-03-16T02:02:21;101070.14;;;4.46;66.97
28701;BME280;15877;52.344;16.790;2023-03-16T02:04:58;101070.32;;;4.51;67.06
28701;BME280;15877;52.344;16.790;2023-03-16T02:07:36;101071.38;;;4.50;67.30
28701;BME280;15877;52.344;16.790;2023-03-16T02:10:12;101072.82;;;4.52;67.21
28701;BME280;15877;52.344;16.790;2023-03-16T02:12:46;101072.73;;;4.58;67.24
28701;BME280;15877;52.344;16.790;2023-03-16T02:15:18;101061.91;;;4.58;67.07
28701;BME280;15877;52.344;16.790;2023-03-16T02:17:51;101078.41;;;4.84;66.60
28701;BME280;15877;52.344;16.790;2023-03-16T02:20:32;101075.79;;;4.78;66.83
28701;BME280;15877;52.344;16.790;2023-03-16T02:23:09;101078.55;;;4.62;67.47
28701;BME280;15877;52.344;16.790;2023-03-16T02:25:55;101081.45;;;4.43;68.21
28701;BME280;15877;52.344;16.790;2023-03-16T02:28:36;101082.67;;;4.69;67.79
28701;BME280;15877;52.344;16.790;2023-03-16T02:31:18;101086.86;;;4.84;67.04
28701;BME280;15877;52.344;16.790;2023-03-16T02:33:52;101089.67;;;4.97;66.58
28701;BME280;15877;52.344;16.790;2023-03-16T02:36:25;101093.56;;;4.91;66.64
28701;BME280;15877;52.344;16.790;2023-03-16T02:38:58;101088.39;;;4.96;66.55
28701;BME280;15877;52.344;16.790;2023-03-16T02:41:32;101085.40;;;4.89;66.54
28701;BME280;15877;52.344;16.790;2023-03-16T02:44:11;101089.55;;;4.74;67.07
28701;BME280;15877;52.344;16.790;2023-03-16T02:46:46;101088.54;;;4.80;66.96
28701;BME280;15877;52.344;16.790;2023-03-16T02:49:22;101090.73;;;4.82;66.71
28701;BME280;15877;52.344;16.790;2023-03-16T02:51:58;101087.60;;;4.60;67.47
28701;BME280;15877;52.344;16.790;2023-03-16T02:54:30;101094.56;;;4.69;67.24
28701;BME280;15877;52.344;16.790;2023-03-16T02:57:03;101089.46;;;4.53;67.78
28701;BME280;15877;52.344;16.790;2023-03-16T02:59:37;101090.73;;;4.60;67.60
28701;BME280;15877;52.344;16.790;2023-03-16T03:02:12;101094.28;;;4.62;67.32
28701;BME280;15877;52.344;16.790;2023-03-16T03:04:46;101091.25;;;4.50;67.68
28701;BME280;15877;52.344;16.790;2023-03-16T03:07:20;101098.95;;;4.52;67.76
28701;BME280;15877;52.344;16.790;2023-03-16T03:10:07;101097.80;;;4.49;67.70
28701;BME280;15877;52.344;16.790;2023-03-16T03:12:39;101097.60;;;4.33;68.20
28701;BME280;15877;52.344;16.790;2023-03-16T03:15:13;101098.88;;;4.32;68.36
28701;BME280;15877;52.344;16.790;2023-03-16T03:17:58;101097.21;;;4.28;68.32
28701;BME280;15877;52.344;16.790;2023-03-16T03:20:33;101099.00;;;4.26;68.45
28701;BME280;15877;52.344;16.790;2023-03-16T03:23:05;101102.79;;;4.37;68.04
28701;BME280;15877;52.344;16.790;2023-03-16T03:25:38;101106.30;;;4.35;67.98
28701;BME280;15877;52.344;16.790;2023-03-16T03:28:11;101108.54;;;4.33;67.91
28701;BME280;15877;52.344;16.790;2023-03-16T03:30:44;101114.04;;;4.20;68.47
28701;BME280;15877;52.344;16.790;2023-03-16T03:33:17;101117.95;;;4.17;68.62
28701;BME280;15877;52.344;16.790;2023-03-16T03:35:54;101114.46;;;4.23;68.49
28701;BME280;15877;52.344;16.790;2023-03-16T03:38:28;101110.44;;;4.04;69.17
28701;BME280;15877;52.344;16.790;2023-03-16T03:41:00;101111.88;;;4.10;69.19
28701;BME280;15877;52.344;16.790;2023-03-16T03:43:35;101105.47;;;4.25;68.85
28701;BME280;15877;52.344;16.790;2023-03-16T03:46:08;101111.47;;;4.24;68.71
28701;BME280;15877;52.344;16.790;2023-03-16T03:48:40;101110.69;;;4.25;68.74
28701;BME280;15877;52.344;16.790;2023-03-16T03:51:14;101113.00;;;4.19;68.79
28701;BME280;15877;52.344;16.790;2023-03-16T03:54:09;101116.58;;;4.11;69.26
28701;BME280;15877;52.344;16.790;2023-03-16T03:56:54;101118.84;;;4.19;68.96
28701;BME280;15877;52.344;16.790;2023-03-16T03:59:27;101124.54;;;3.91;69.85
28701;BME280;15877;52.344;16.790;2023-03-16T04:02:00;101115.09;;;4.08;69.34
28701;BME280;15877;52.344;16.790;2023-03-16T04:04:46;101119.97;;;3.98;69.54
28701;BME280;15877;52.344;16.790;2023-03-16T04:07:19;101116.37;;;4.22;68.90
28701;BME280;15877;52.344;16.790;2023-03-16T04:09:53;101116.02;;;4.28;68.43
28701;BME280;15877;52.344;16.790;2023-03-16T04:12:37;101119.70;;;4.31;68.34
28701;BME280;15877;52.344;16.790;2023-03-16T04:15:11;101116.65;;;4.19;68.52
28701;BME280;15877;52.344;16.790;2023-03-16T04:17:58;101117.73;;;4.14;68.75
28701;BME280;15877;52.344;16.790;2023-03-16T04:20:32;101120.34;;;4.01;69.06
28701;BME280;15877;52.344;16.790;2023-03-16T04:23:04;101123.06;;;4.12;68.79
28701;BME280;15877;52.344;16.790;2023-03-16T04:25:38;101122.73;;;4.19;68.45
28701;BME280;15877;52.344;16.790;2023-03-16T04:28:11;101126.86;;;4.28;68.08
28701;BME280;15877;52.344;16.790;2023-03-16T04:30:49;101125.84;;;4.24;68.09
28701;BME280;15877;52.344;16.790;2023-03-16T04:33:35;101133.00;;;4.17;68.26
28701;BME280;15877;52.344;16.790;2023-03-16T04:36:10;101132.21;;;4.19;68.13
28701;BME280;15877;52.344;16.790;2023-03-16T04:38:43;101132.35;;;4.12;68.34
28701;BME280;15877;52.344;16.790;2023-03-16T04:41:16;101135.85;;;4.10;68.48
28701;BME280;15877;52.344;16.790;2023-03-16T04:44:18;101137.51;;;4.12;68.30
28701;BME280;15877;52.344;16.790;2023-03-16T04:46:53;101138.52;;;3.91;68.80
28701;BME280;15877;52.344;16.790;2023-03-16T04:49:26;101141.56;;;3.95;68.99
28701;BME280;15877;52.344;16.790;2023-03-16T04:51:59;101142.31;;;3.75;69.30
28701;BME280;15877;52.344;16.790;2023-03-16T04:54:32;101144.66;;;3.82;69.41
28701;BME280;15877;52.344;16.790;2023-03-16T04:57:08;101147.87;;;4.00;68.69
28701;BME280;15877;52.344;16.790;2023-03-16T04:59:45;101150.92;;;3.76;69.32
28701;BME280;15877;52.344;16.790;2023-03-16T05:02:44;101148.48;;;3.92;68.91
28701;BME280;15877;52.344;16.790;2023-03-16T05:05:18;101150.52;;;3.77;69.07
28701;BME280;15877;52.344;16.790;2023-03-16T05:07:55;101136.23;;;3.65;69.25
28701;BME280;15877;52.344;16.790;2023-03-16T05:10:30;101154.41;;;3.78;69.13
28701;BME280;15877;52.344;16.790;2023-03-16T05:13:06;101151.94;;;3.61;69.27
28701;BME280;15877;52.344;16.790;2023-03-16T05:15:41;101156.45;;;3.46;69.89
28701;BME280;15877;52.344;16.790;2023-03-16T05:18:28;101143.62;;;3.47;69.77
28701;BME280;15877;52.344;16.790;2023-03-16T05:21:03;101156.58;;;3.86;68.76
28701;BME280;15877;52.344;16.790;2023-03-16T05:23:49;101159.52;;;3.84;68.78
28701;BME280;15877;52.344;16.790;2023-03-16T05:26:25;101155.61;;;4.00;67.84
28701;BME280;15877;52.344;16.790;2023-03-16T05:28:59;101157.04;;;4.00;67.32
28701;BME280;15877;52.344;16.790;2023-03-16T05:31:35;101159.89;;;3.94;67.48
28701;BME280;15877;52.344;16.790;2023-03-16T05:34:26;101164.23;;;4.06;67.16
28701;BME280;15877;52.344;16.790;2023-03-16T05:36:59;101159.23;;;4.15;66.64
28701;BME280;15877;52.344;16.790;2023-03-16T05:39:32;101158.28;;;3.99;66.98
28701;BME280;15877;52.344;16.790;2023-03-16T05:42:07;101166.35;;;4.05;67.01
28701;BME280;15877;52.344;16.790;2023-03-16T05:44:45;101164.09;;;4.08;66.95
28701;BME280;15877;52.344;16.790;2023-03-16T05:47:28;101166.40;;;4.06;67.26
28701;BME280;15877;52.344;16.790;2023-03-16T05:50:01;101166.77;;;4.07;67.52
28701;BME280;15877;52.344;16.790;2023-03-16T05:52:39;101168.46;;;4.18;67.36
28701;BME280;15877;52.344;16.790;2023-03-16T05:55:18;101172.20;;;4.18;67.45
28701;BME280;15877;52.344;16.790;2023-03-16T05:58:00;101171.70;;;4.19;67.62
28701;BME280;15877;52.344;16.790;2023-03-16T06:00:37;101178.06;;;4.20;67.69
28701;BME280;15877;52.344;16.790;2023-03-16T06:03:30;101162.58;;;4.13;67.84
28701;BME280;15877;52.344;16.790;2023-03-16T06:06:06;101179.51;;;4.19;68.04
28701;BME280;15877;52.344;16.790;2023-03-16T06:08:51;101183.09;;;4.30;67.81
28701;BME280;15877;52.344;16.790;2023-03-16T06:11:26;101183.98;;;4.18;68.44
28701;BME280;15877;52.344;16.790;2023-03-16T06:14:04;101185.53;;;4.26;68.27
28701;BME280;15877;52.344;16.790;2023-03-16T06:16:46;101189.16;;;4.32;68.22
28701;BME280;15877;52.344;16.790;2023-03-16T06:19:18;101191.77;;;4.20;68.69
28701;BME280;15877;52.344;16.790;2023-03-16T06:22:01;101176.70;;;4.16;68.69
28701;BME280;15877;52.344;16.790;2023-03-16T06:24:34;101194.23;;;4.28;68.70
28701;BME280;15877;52.344;16.790;2023-03-16T06:27:08;101191.95;;;4.27;68.61
28701;BME280;15877;52.344;16.790;2023-03-16T06:29:52;101192.17;;;4.18;69.35
28701;BME280;15877;52.344;16.790;2023-03-16T06:32:27;101196.98;;;4.19;69.34
28701;BME280;15877;52.344;16.790;2023-03-16T06:34:59;101193.04;;;4.22;69.18
28701;BME280;15877;52.344;16.790;2023-03-16T06:37:34;101194.58;;;4.22;69.26
28701;BME280;15877;52.344;16.790;2023-03-16T06:40:19;101193.95;;;4.43;68.76
28701;BME280;15877;52.344;16.790;2023-03-16T06:43:02;101200.95;;;4.30;68.88
28701;BME280;15877;52.344;16.790;2023-03-16T06:45:37;101201.40;;;4.13;69.55
28701;BME280;15877;52.344;16.790;2023-03-16T06:48:10;101203.11;;;4.24;69.51
28701;BME280;15877;52.344;16.790;2023-03-16T06:50:45;101203.57;;;4.18;69.78
28701;BME280;15877;52.344;16.790;2023-03-16T06:53:24;101191.43;;;4.11;69.91
28701;BME280;15877;52.344;16.790;2023-03-16T06:55:58;101205.59;;;4.09;69.99
28701;BME280;15877;52.344;16.790;2023-03-16T06:58:32;101215.61;;;4.27;69.51
28701;BME280;15877;52.344;16.790;2023-03-16T07:01:06;101219.19;;;4.15;70.28
28701;BME280;15877;52.344;16.790;2023-03-16T07:03:39;101219.02;;;4.26;69.54
28701;BME280;15877;52.344;16.790;2023-03-16T07:06:19;101216.95;;;4.19;69.97
28701;BME280;15877;52.344;16.790;2023-03-16T07:08:56;101219.92;;;4.16;70.63
28701;BME280;15877;52.344;16.790;2023-03-16T07:11:39;101221.09;;;4.45;69.95
28701;BME280;15877;52.344;16.790;2023-03-16T07:14:13;101223.22;;;4.57;69.80
28701;BME280;15877;52.344;16.790;2023-03-16T07:16:50;101224.52;;;4.73;69.55
28701;BME280;15877;52.344;16.790;2023-03-16T07:19:27;101226.09;;;4.66;69.43
28701;BME280;15877;52.344;16.790;2023-03-16T07:22:02;101231.86;;;4.72;69.17
28701;BME280;15877;52.344;16.790;2023-03-16T07:24:38;101228.10;;;4.64;69.60
28701;BME280;15877;52.344;16.790;2023-03-16T07:27:12;101233.05;;;4.59;69.89
28701;BME280;15877;52.344;16.790;2023-03-16T07:29:46;101231.66;;;4.45;70.21
28701;BME280;15877;52.344;16.790;2023-03-16T07:32:19;101242.31;;;4.61;69.75
28701;BME280;15877;52.344;16.790;2023-03-16T07:35:05;101244.03;;;4.71;69.65
28701;BME280;15877;52.344;16.790;2023-03-16T07:37:41;101249.23;;;4.99;68.72
28701;BME280;15877;52.344;16.790;2023-03-16T07:40:15;101246.87;;;5.20;67.88
28701;BME280;15877;52.344;16.790;2023-03-16T07:42:52;101254.66;;;5.27;67.82
28701;BME280;15877;52.344;16.790;2023-03-16T07:45:39;101250.09;;;5.14;67.98
28701;BME280;15877;52.344;16.790;2023-03-16T07:48:13;101251.73;;;5.23;68.37
28701;BME280;15877;52.344;16.790;2023-03-16T07:51:02;101257.25;;;4.90;69.06
28701;BME280;15877;52.344;16.790;2023-03-16T07:53:36;101257.55;;;5.21;68.70
28701;BME280;15877;52.344;16.790;2023-03-16T07:56:31;101261.92;;;5.37;67.86
28701;BME280;15877;52.344;16.790;2023-03-16T07:59:25;101264.56;;;5.48;67.72
28701;BME280;15877;52.344;16.790;2023-03-16T08:02:00;101266.85;;;5.58;67.40
28701;BME280;15877;52.344;16.790;2023-03-16T08:04:34;101255.34;;;5.56;67.25
28701;BME280;15877;52.344;16.790;2023-03-16T08:07:08;101271.93;;;5.74;66.31
28701;BME280;15877;52.344;16.790;2023-03-16T08:10:04;101275.05;;;5.78;66.60
28701;BME280;15877;52.344;16.790;2023-03-16T08:13:01;101276.88;;;5.82;65.97
28701;BME280;15877;52.344;16.790;2023-03-16T08:15:37;101280.45;;;5.88;66.05
28701;BME280;15877;52.344;16.790;2023-03-16T08:18:14;101283.20;;;6.00;65.51
28701;BME280;15877;52.344;16.790;2023-03-16T08:20:51;101272.25;;;5.91;65.62
28701;BME280;15877;52.344;16.790;2023-03-16T08:23:26;101286.91;;;6.08;64.93
28701;BME280;15877;52.344;16.790;2023-03-16T08:25:59;101286.48;;;6.09;64.79
28701;BME280;15877;52.344;16.790;2023-03-16T08:28:33;101287.99;;;6.16;64.60
28701;BME280;15877;52.344;16.790;2023-03-16T08:31:16;101287.07;;;6.26;64.45
28701;BME280;15877;52.344;16.790;2023-03-16T08:33:59;101288.16;;;6.22;64.23
28701;BME280;15877;52.344;16.790;2023-03-16T08:36:36;101290.27;;;6.33;64.26
28701;BME280;15877;52.344;16.790;2023-03-16T08:39:11;101294.43;;;6.36;63.84
28701;BME280;15877;52.344;16.790;2023-03-16T08:41:46;101293.70;;;6.49;63.52
28701;BME280;15877;52.344;16.790;2023-03-16T08:44:34;101292.91;;;6.52;63.13
28701;BME280;15877;52.344;16.790;2023-03-16T08:47:09;101294.89;;;6.58;62.75
28701;BME280;15877;52.344;16.790;2023-03-16T08:49:43;101301.80;;;6.70;62.19
28701;BME280;15877;52.344;16.790;2023-03-16T08:52:18;101298.02;;;6.69;62.31
28701;BME280;15877;52.344;16.790;2023-03-16T08:54:53;101309.22;;;6.70;61.99
28701;BME280;15877;52.344;16.790;2023-03-16T08:57:35;101316.09;;;6.58;61.67
28701;BME280;15877;52.344;16.790;2023-03-16T09:00:11;101308.39;;;6.66;61.99
28701;BME280;15877;52.344;16.790;2023-03-16T09:02:45;101307.33;;;6.51;61.89
28701;BME280;15877;52.344;16.790;2023-03-16T09:05:19;101309.83;;;6.59;62.15
28701;BME280;15877;52.344;16.790;2023-03-16T09:07:53;101299.59;;;6.56;61.70
28701;BME280;15877;52.344;16.790;2023-03-16T09:10:28;101316.83;;;6.66;61.80
28701;BME280;15877;52.344;16.790;2023-03-16T09:13:03;101318.42;;;6.70;61.71
28701;BME280;15877;52.344;16.790;2023-03-16T09:15:36;101319.66;;;6.72;61.74
28701;BME280;15877;52.344;16.790;2023-03-16T09:18:10;101320.60;;;6.67;61.33
28701;BME280;15877;52.344;16.790;2023-03-16T09:20:44;101325.73;;;6.67;62.13
28701;BME280;15877;52.344;16.790;2023-03-16T09:23:18;101325.09;;;6.91;61.73
28701;BME280;15877;52.344;16.790;2023-03-16T09:25:52;101323.07;;;6.84;61.76
28701;BME280;15877;52.344;16.790;2023-03-16T09:28:26;101321.57;;;6.89;61.65
28701;BME280;15877;52.344;16.790;2023-03-16T09:31:02;101324.69;;;6.98;61.81
28701;BME280;15877;52.344;16.790;2023-03-16T09:33:35;101328.04;;;7.04;61.62
28701;BME280;15877;52.344;16.790;2023-03-16T09:36:09;101322.84;;;7.16;61.77
28701;BME280;15877;52.344;16.790;2023-03-16T09:38:46;101324.27;;;7.37;61.35
28701;BME280;15877;52.344;16.790;2023-03-16T09:41:33;101316.45;;;7.36;60.46
28701;BME280;15877;52.344;16.790;2023-03-16T09:44:22;101326.40;;;7.38;60.44
28701;BME280;15877;52.344;16.790;2023-03-16T09:47:04;101316.14;;;7.58;60.33
28701;BME280;15877;52.344;16.790;2023-03-16T09:49:43;101315.27;;;7.63;59.79
28701;BME280;15877;52.344;16.790;2023-03-16T09:52:27;101319.44;;;7.64;59.19
28701;BME280;15877;52.344;16.790;2023-03-16T09:55:09;101323.13;;;7.56;59.08
28701;BME280;15877;52.344;16.790;2023-03-16T09:57:45;101324.45;;;7.68;59.31
28701;BME280;15877;52.344;16.790;2023-03-16T10:00:21;101325.37;;;7.76;58.82
28701;BME280;15877;52.344;16.790;2023-03-16T10:03:17;101328.52;;;7.92;58.47
28701;BME280;15877;52.344;16.790;2023-03-16T10:06:01;101331.77;;;7.99;58.58
28701;BME280;15877;52.344;16.790;2023-03-16T10:08:40;101337.96;;;7.95;58.72
28701;BME280;15877;52.344;16.790;2023-03-16T10:11:22;101347.92;;;7.91;57.34
28701;BME280;15877;52.344;16.790;2023-03-16T10:14:03;101344.02;;;7.77;57.51
28701;BME280;15877;52.344;16.790;2023-03-16T10:16:42;101347.18;;;7.79;58.19
28701;BME280;15877;52.344;16.790;2023-03-16T10:19:24;101341.36;;;7.85;58.21
28701;BME280;15877;52.344;16.790;2023-03-16T10:22:16;101341.34;;;7.94;58.18
28701;BME280;15877;52.344;16.790;2023-03-16T10:24:58;101328.01;;;8.12;57.71
28701;BME280;15877;52.344;16.790;2023-03-16T10:27:38;101341.97;;;8.48;57.20
28701;BME280;15877;52.344;16.790;2023-03-16T10:30:23;101344.38;;;8.58;58.18
28701;BME280;15877;52.344;16.790;2023-03-16T10:33:03;101341.63;;;8.41;57.04
28701;BME280;15877;52.344;16.790;2023-03-16T10:35:47;101338.71;;;8.31;57.12
28701;BME280;15877;52.344;16.790;2023-03-16T10:38:32;101343.21;;;8.51;57.89
28701;BME280;15877;52.344;16.790;2023-03-16T10:41:21;101349.08;;;8.41;57.69
28701;BME280;15877;52.344;16.790;2023-03-16T10:44:01;101347.68;;;8.47;57.47
28701;BME280;15877;52.344;16.790;2023-03-16T10:46:41;101349.02;;;8.65;56.18
28701;BME280;15877;52.344;16.790;2023-03-16T10:49:24;101339.27;;;8.66;55.78
28701;BME280;15877;52.344;16.790;2023-03-16T10:52:03;101350.38;;;8.83;56.04
28701;BME280;15877;52.344;16.790;2023-03-16T10:54:39;101343.39;;;8.88;55.08
28701;BME280;15877;52.344;16.790;2023-03-16T10:57:23;101343.84;;;9.00;55.28
28701;BME280;15877;52.344;16.790;2023-03-16T11:00:03;101354.09;;;9.08;53.77
28701;BME280;15877;52.344;16.790;2023-03-16T11:02:47;101346.66;;;9.12;52.26
28701;BME280;15877;52.344;16.790;2023-03-16T11:05:31;101341.48;;;9.17;51.92
28701;BME280;15877;52.344;16.790;2023-03-16T11:08:10;101341.80;;;9.06;51.82
28701;BME280;15877;52.344;16.790;2023-03-16T11:10:53;101332.21;;;9.21;52.33
28701;BME280;15877;52.344;16.790;2023-03-16T11:13:34;101326.67;;;9.26;51.34
28701;BME280;15877;52.344;16.790;2023-03-16T11:16:22;101338.11;;;9.31;50.85
28701;BME280;15877;52.344;16.790;2023-03-16T11:18:57;101338.58;;;9.27;51.03
28701;BME280;15877;52.344;16.790;2023-03-16T11:21:39;101337.60;;;9.25;51.22
28701;BME280;15877;52.344;16.790;2023-03-16T11:24:17;101338.36;;;9.43;50.66
28701;BME280;15877;52.344;16.790;2023-03-16T11:26:59;101345.12;;;9.36;50.54
28701;BME280;15877;52.344;16.790;2023-03-16T11:29:45;101330.14;;;9.53;50.87
28701;BME280;15877;52.344;16.790;2023-03-16T11:32:25;101335.90;;;9.62;51.70
28701;BME280;15877;52.344;16.790;2023-03-16T11:35:12;101336.08;;;9.39;50.55
28701;BME280;15877;52.344;16.790;2023-03-16T11:38:07;101335.79;;;9.36;50.71
28701;BME280;15877;52.344;16.790;2023-03-16T11:40:49;101345.73;;;9.45;49.23
28701;BME280;15877;52.344;16.790;2023-03-16T11:43:48;101345.30;;;9.47;47.47
28701;BME280;15877;52.344;16.790;2023-03-16T11:46:26;101339.20;;;9.63;47.58
28701;BME280;15877;52.344;16.790;2023-03-16T11:49:17;101339.35;;;9.63;47.26
28701;BME280;15877;52.344;16.790;2023-03-16T11:52:00;101335.01;;;9.58;47.41
28701;BME280;15877;52.344;16.790;2023-03-16T11:54:46;101330.38;;;9.79;47.86
28701;BME280;15877;52.344;16.790;2023-03-16T11:57:32;101335.27;;;9.98;47.35
28701;BME280;15877;52.344;16.790;2023-03-16T12:00:43;101339.83;;;10.01;48.12
28701;BME280;15877;52.344;16.790;2023-03-16T12:06:46;101340.63;;;9.89;49.63
28701;BME280;15877;52.344;16.790;2023-03-16T12:09:49;101343.92;;;9.78;50.11
28701;BME280;15877;52.344;16.790;2023-03-16T12:12:36;101336.29;;;9.88;49.97
28701;BME280;15877;52.344;16.790;2023-03-16T12:15:24;101336.61;;;10.13;48.70
28701;BME280;15877;52.344;16.790;2023-03-16T12:18:04;101331.55;;;10.25;48.13
28701;BME280;15877;52.344;16.790;2023-03-16T12:20:46;101336.81;;;9.93;48.73
28701;BME280;15877;52.344;16.790;2023-03-16T12:23:30;101338.53;;;9.76;48.70
28701;BME280;15877;52.344;16.790;2023-03-16T12:26:06;101334.27;;;10.05;48.34
28701;BME280;15877;52.344;16.790;2023-03-16T12:28:41;101310.05;;;10.00;46.20
28701;BME280;15877;52.344;16.790;2023-03-16T12:31:17;101335.46;;;10.22;45.32
28701;BME280;15877;52.344;16.790;2023-03-16T12:34:15;101336.73;;;10.36;45.52
28701;BME280;15877;52.344;16.790;2023-03-16T12:37:12;101331.32;;;10.32;46.29
28701;BME280;15877;52.344;16.790;2023-03-16T12:40:21;101329.48;;;10.44;46.61
28701;BME280;15877;52.344;16.790;2023-03-16T12:43:12;101334.42;;;10.32;47.58
28701;BME280;15877;52.344;16.790;2023-03-16T12:45:53;101342.19;;;10.19;47.44
28701;BME280;15877;52.344;16.790;2023-03-16T12:48:32;101341.67;;;10.34;44.97
28701;BME280;15877;52.344;16.790;2023-03-16T12:51:07;101325.75;;;10.38;43.76
28701;BME280;15877;52.344;16.790;2023-03-16T12:53:46;101331.41;;;10.36;43.88
28701;BME280;15877;52.344;16.790;2023-03-16T12:56:30;101323.52;;;10.59;44.47
28701;BME280;15877;52.344;16.790;2023-03-16T12:59:06;101327.34;;;10.68;44.49
28701;BME280;15877;52.344;16.790;2023-03-16T13:01:44;101326.55;;;10.81;43.84
28701;BME280;15877;52.344;16.790;2023-03-16T13:04:28;101324.27;;;10.89;44.05
28701;BME280;15877;52.344;16.790;2023-03-16T13:07:05;101329.10;;;10.97;44.29
28701;BME280;15877;52.344;16.790;2023-03-16T13:09:45;101328.20;;;11.04;44.44
28701;BME280;15877;52.344;16.790;2023-03-16T13:12:26;101332.81;;;11.13;44.30
28701;BME280;15877;52.344;16.790;2023-03-16T13:15:23;101338.69;;;11.08;43.67
28701;BME280;15877;52.344;16.790;2023-03-16T13:18:20;101339.99;;;10.86;43.78
28701;BME280;15877;52.344;16.790;2023-03-16T13:20:57;101339.36;;;10.60;43.50
28701;BME280;15877;52.344;16.790;2023-03-16T13:23:50;101340.80;;;10.65;43.89
28701;BME280;15877;52.344;16.790;2023-03-16T13:26:41;101325.98;;;10.32;43.95
28701;BME280;15877;52.344;16.790;2023-03-16T13:29:21;101344.77;;;10.39;43.91
28701;BME280;15877;52.344;16.790;2023-03-16T13:31:57;101339.70;;;10.59;44.38
28701;BME280;15877;52.344;16.790;2023-03-16T13:34:44;101341.69;;;10.69;43.25
28701;BME280;15877;52.344;16.790;2023-03-16T13:37:19;101348.79;;;10.68;43.99
28701;BME280;15877;52.344;16.790;2023-03-16T13:39:56;101345.20;;;10.83;44.26
28701;BME280;15877;52.344;16.790;2023-03-16T13:42:32;101346.76;;;11.07;45.46
28701;BME280;15877;52.344;16.790;2023-03-16T13:45:13;101346.87;;;11.08;43.03
28701;BME280;15877;52.344;16.790;2023-03-16T13:47:48;101343.42;;;11.17;42.33
28701;BME280;15877;52.344;16.790;2023-03-16T13:50:22;101343.61;;;11.15;41.95
28701;BME280;15877;52.344;16.790;2023-03-16T13:52:59;101340.02;;;11.12;42.65